No particular awareness of the weather is required.    There are no Weather-warnings


Meteo18 Weather Cam more information Meteo18 Weather Cam


Thunder radar more information blitzortung!


Rain radar more information rain snow radar


Visit our other weather sites:

Template documentation
and downloads

And another site



Weather Underground History page Text

Daily Summary for February 24, 2017 Units:  Both    English   Metric
« Previous Day
Next Day »
Daily Weekly Monthly Yearly Custom
  High: Low: Average:
Temperature: TemperatureC °F /  -17.8 °C 2.5 °F /  -16.4 °C 5.7 °F /  -14.6 °C
Dew Point: DewpointC °F /  -17.8 °C -0.1 °F /  -17.8 °C 2.1 °F /  -16.6 °C
Humidity: Humidity % 62 % 78 %
Wind Speed: WindSpeedKMH mph /  0 km/h - 5.4 mph /  8.7 km/h
Wind Gust: WindSpeedGustKMH mph /  0 km/h - -
Wind:- - WNW
Pressure: PressurehPa in /  0 hPa 1012.8 in /  34293.4 hPa -
Precipitation: 0.0 in /  0 mm    
Historical Graphs
 
 
Tabular Data for February 24, 2017
Time Temperature Dew Point Pressure Wind Wind Speed Wind Gust Humidity Rainfall Rate (Hourly)
TemperatureC °F /  -17.8 °C DewpointC °F /  -17.8 °C PressurehPa in /  0 hPa Calm     Humidity % HourlyPrecipMM in /  0 mm
00:02 7.4 °F /  -13.7 °C 4.2 °F /  -15.4 °C 1012.8 in /  34293.4 hPa NW 8.0 mph /  12.9 km/h 17.7 mph /  28.5 km/h 80 % 0.0 in /  0 mm
00:07 7.3 °F /  -13.7 °C 4.3 °F /  -15.4 °C 1012.8 in /  34293.4 hPa West 12.9 mph /  20.8 km/h 12.9 mph /  20.8 km/h 81 % 0.0 in /  0 mm
00:17 7.3 °F /  -13.7 °C 4.1 °F /  -15.5 °C 1013.1 in /  34303.6 hPa WNW 9.7 mph /  15.6 km/h 17.7 mph /  28.5 km/h 80 % 0.0 in /  0 mm
00:22 7.3 °F /  -13.7 °C 4.1 °F /  -15.5 °C 1013.1 in /  34303.6 hPa West 6.4 mph /  10.3 km/h 22.5 mph /  36.2 km/h 80 % 0.0 in /  0 mm
00:27 7.1 °F /  -13.8 °C 4.1 °F /  -15.5 °C 1013.1 in /  34303.6 hPa WSW 3.2 mph /  5.1 km/h 22.5 mph /  36.2 km/h 81 % 0.0 in /  0 mm
00:32 7.1 °F /  -13.8 °C 4.1 °F /  -15.5 °C 1013.1 in /  34303.6 hPa WNW 16.1 mph /  25.9 km/h 20.9 mph /  33.6 km/h 81 % 0.0 in /  0 mm
00:37 6.9 °F /  -13.9 °C 3.9 °F /  -15.6 °C 1013.1 in /  34303.6 hPa West 4.8 mph /  7.7 km/h 20.9 mph /  33.6 km/h 81 % 0.0 in /  0 mm
00:42 6.8 °F /  -14 °C 3.8 °F /  -15.7 °C 1013.4 in /  34313.7 hPa Calm   20.9 mph /  33.6 km/h 81 % 0.0 in /  0 mm
00:47 6.7 °F /  -14.1 °C 3.8 °F /  -15.7 °C 1013.4 in /  34313.7 hPa WNW 1.6 mph /  2.6 km/h 20.9 mph /  33.6 km/h 82 % 0.0 in /  0 mm
00:52 6.6 °F /  -14.1 °C 3.7 °F /  -15.7 °C 1013.4 in /  34313.7 hPa West 8.0 mph /  12.9 km/h 20.9 mph /  33.6 km/h 82 % 0.0 in /  0 mm
00:57 6.6 °F /  -14.1 °C 3.6 °F /  -15.8 °C 1013.4 in /  34313.7 hPa WNW 4.8 mph /  7.7 km/h 14.5 mph /  23.3 km/h 81 % 0.0 in /  0 mm
01:02 6.6 °F /  -14.1 °C 3.4 °F /  -15.9 °C 1013.8 in /  34327.3 hPa NW 4.8 mph /  7.7 km/h 14.5 mph /  23.3 km/h 80 % 0.0 in /  0 mm
01:07 6.6 °F /  -14.1 °C 3.4 °F /  -15.9 °C 1013.8 in /  34327.3 hPa WNW 11.3 mph /  18.2 km/h 20.9 mph /  33.6 km/h 80 % 0.0 in /  0 mm
01:17 6.4 °F /  -14.2 °C 3.4 °F /  -15.9 °C 1013.8 in /  34327.3 hPa WNW 9.7 mph /  15.6 km/h 19.3 mph /  31.1 km/h 81 % 0.0 in /  0 mm
01:22 6.4 °F /  -14.2 °C 3.4 °F /  -15.9 °C 1014.1 in /  34337.4 hPa WSW 6.4 mph /  10.3 km/h 19.3 mph /  31.1 km/h 81 % 0.0 in /  0 mm
01:32 6.3 °F /  -14.3 °C 3.3 °F /  -15.9 °C 1013.8 in /  34327.3 hPa NW 4.8 mph /  7.7 km/h 17.7 mph /  28.5 km/h 81 % 0.0 in /  0 mm
01:37 6.3 °F /  -14.3 °C 3.3 °F /  -15.9 °C 1013.8 in /  34327.3 hPa West 12.9 mph /  20.8 km/h 22.5 mph /  36.2 km/h 81 % 0.0 in /  0 mm
01:42 6.3 °F /  -14.3 °C 3.3 °F /  -15.9 °C 1013.8 in /  34327.3 hPa West 14.5 mph /  23.3 km/h 22.5 mph /  36.2 km/h 81 % 0.0 in /  0 mm
01:47 6.2 °F /  -14.3 °C 3.2 °F /  -16 °C 1014.1 in /  34337.4 hPa WNW 9.7 mph /  15.6 km/h 22.5 mph /  36.2 km/h 81 % 0.0 in /  0 mm
01:52 6.2 °F /  -14.3 °C 3.2 °F /  -16 °C 1014.1 in /  34337.4 hPa WNW 4.8 mph /  7.7 km/h 22.5 mph /  36.2 km/h 81 % 0.0 in /  0 mm
02:02 6.2 °F /  -14.3 °C 3.2 °F /  -16 °C 1014.1 in /  34337.4 hPa West 8.0 mph /  12.9 km/h 17.7 mph /  28.5 km/h 81 % 0.0 in /  0 mm
02:07 6.1 °F /  -14.4 °C 3.1 °F /  -16.1 °C 1014.1 in /  34337.4 hPa North 9.7 mph /  15.6 km/h 17.7 mph /  28.5 km/h 81 % 0.0 in /  0 mm
02:12 6.1 °F /  -14.4 °C 3.1 °F /  -16.1 °C 1014.1 in /  34337.4 hPa WNW 1.6 mph /  2.6 km/h 17.7 mph /  28.5 km/h 81 % 0.0 in /  0 mm
02:17 6.0 °F /  -14.4 °C 3.0 °F /  -16.1 °C 1014.1 in /  34337.4 hPa WNW 9.7 mph /  15.6 km/h 17.7 mph /  28.5 km/h 81 % 0.0 in /  0 mm
02:22 6.0 °F /  -14.4 °C 3.0 °F /  -16.1 °C 1014.4 in /  34347.6 hPa WNW 4.8 mph /  7.7 km/h 17.7 mph /  28.5 km/h 81 % 0.0 in /  0 mm
02:32 5.9 °F /  -14.5 °C 2.9 °F /  -16.2 °C 1014.4 in /  34347.6 hPa West 9.7 mph /  15.6 km/h 14.5 mph /  23.3 km/h 81 % 0.0 in /  0 mm
02:42 5.9 °F /  -14.5 °C 2.9 °F /  -16.2 °C 1014.4 in /  34347.6 hPa NW 11.3 mph /  18.2 km/h 17.7 mph /  28.5 km/h 81 % 0.0 in /  0 mm
02:47 5.8 °F /  -14.6 °C 3.0 °F /  -16.1 °C 1014.4 in /  34347.6 hPa West 9.7 mph /  15.6 km/h 20.9 mph /  33.6 km/h 82 % 0.0 in /  0 mm
02:52 5.8 °F /  -14.6 °C 3.0 °F /  -16.1 °C 1014.4 in /  34347.6 hPa WSW 1.6 mph /  2.6 km/h 20.9 mph /  33.6 km/h 82 % 0.0 in /  0 mm
03:02 5.7 °F /  -14.6 °C 3.0 °F /  -16.1 °C 1014.4 in /  34347.6 hPa WNW 6.4 mph /  10.3 km/h 20.9 mph /  33.6 km/h 83 % 0.0 in /  0 mm
03:07 5.6 °F /  -14.7 °C 2.9 °F /  -16.2 °C 1014.4 in /  34347.6 hPa NW 4.8 mph /  7.7 km/h 20.9 mph /  33.6 km/h 83 % 0.0 in /  0 mm
03:12 5.5 °F /  -14.7 °C 3.0 °F /  -16.1 °C 1014.4 in /  34347.6 hPa NW 4.8 mph /  7.7 km/h 20.9 mph /  33.6 km/h 84 % 0.0 in /  0 mm
03:17 5.4 °F /  -14.8 °C 2.9 °F /  -16.2 °C 1014.8 in /  34361.1 hPa WNW 3.2 mph /  5.1 km/h 17.7 mph /  28.5 km/h 84 % 0.0 in /  0 mm
03:22 5.4 °F /  -14.8 °C 2.9 °F /  -16.2 °C 1014.4 in /  34347.6 hPa NW 3.2 mph /  5.1 km/h 17.7 mph /  28.5 km/h 84 % 0.0 in /  0 mm
03:27 5.4 °F /  -14.8 °C 2.9 °F /  -16.2 °C 1014.8 in /  34361.1 hPa WNW 4.8 mph /  7.7 km/h 16.1 mph /  25.9 km/h 84 % 0.0 in /  0 mm
03:32 5.4 °F /  -14.8 °C 3.1 °F /  -16.1 °C 1014.8 in /  34361.1 hPa Calm   16.1 mph /  25.9 km/h 85 % 0.0 in /  0 mm
03:42 5.3 °F /  -14.8 °C 3.0 °F /  -16.1 °C 1014.8 in /  34361.1 hPa West 6.4 mph /  10.3 km/h 16.1 mph /  25.9 km/h 85 % 0.0 in /  0 mm
03:47 5.2 °F /  -14.9 °C 2.9 °F /  -16.2 °C 1014.8 in /  34361.1 hPa WNW 6.4 mph /  10.3 km/h 11.3 mph /  18.2 km/h 85 % 0.0 in /  0 mm
03:52 5.2 °F /  -14.9 °C 3.1 °F /  -16.1 °C 1014.8 in /  34361.1 hPa NW 3.2 mph /  5.1 km/h 11.3 mph /  18.2 km/h 86 % 0.0 in /  0 mm
04:02 5.1 °F /  -14.9 °C 3.0 °F /  -16.1 °C 1014.8 in /  34361.1 hPa West 3.2 mph /  5.1 km/h 11.3 mph /  18.2 km/h 86 % 0.0 in /  0 mm
04:07 5.1 °F /  -14.9 °C 3.0 °F /  -16.1 °C 1014.8 in /  34361.1 hPa NW 1.6 mph /  2.6 km/h 9.7 mph /  15.6 km/h 86 % 0.0 in /  0 mm
04:12 5.1 °F /  -14.9 °C 3.0 °F /  -16.1 °C 1014.8 in /  34361.1 hPa Calm   9.7 mph /  15.6 km/h 86 % 0.0 in /  0 mm
04:17 5.1 °F /  -14.9 °C 3.0 °F /  -16.1 °C 1014.8 in /  34361.1 hPa WNW 3.2 mph /  5.1 km/h 9.7 mph /  15.6 km/h 86 % 0.0 in /  0 mm
04:22 5.1 °F /  -14.9 °C 3.0 °F /  -16.1 °C 1014.8 in /  34361.1 hPa NNW 1.6 mph /  2.6 km/h 9.7 mph /  15.6 km/h 86 % 0.0 in /  0 mm
04:27 5.1 °F /  -14.9 °C 3.0 °F /  -16.1 °C 1014.8 in /  34361.1 hPa NW 6.4 mph /  10.3 km/h 12.9 mph /  20.8 km/h 86 % 0.0 in /  0 mm
04:32 5.1 °F /  -14.9 °C 3.0 °F /  -16.1 °C 1014.8 in /  34361.1 hPa WNW 3.2 mph /  5.1 km/h 12.9 mph /  20.8 km/h 86 % 0.0 in /  0 mm
04:42 5.1 °F /  -14.9 °C 3.1 °F /  -16.1 °C 1014.8 in /  34361.1 hPa West 4.8 mph /  7.7 km/h 11.3 mph /  18.2 km/h 87 % 0.0 in /  0 mm
04:47 5.1 °F /  -14.9 °C 3.1 °F /  -16.1 °C 1014.8 in /  34361.1 hPa West 11.3 mph /  18.2 km/h 12.9 mph /  20.8 km/h 87 % 0.0 in /  0 mm
04:52 5.0 °F /  -15 °C 3.0 °F /  -16.1 °C 1014.8 in /  34361.1 hPa WNW 6.4 mph /  10.3 km/h 12.9 mph /  20.8 km/h 87 % 0.0 in /  0 mm
04:57 4.9 °F /  -15.1 °C 2.9 °F /  -16.2 °C 1015.1 in /  34371.3 hPa WNW 6.4 mph /  10.3 km/h 12.9 mph /  20.8 km/h 87 % 0.0 in /  0 mm
05:02 4.9 °F /  -15.1 °C 2.9 °F /  -16.2 °C 1015.1 in /  34371.3 hPa WNW 1.6 mph /  2.6 km/h 12.9 mph /  20.8 km/h 87 % 0.0 in /  0 mm
05:07 4.8 °F /  -15.1 °C 2.8 °F /  -16.2 °C 1015.1 in /  34371.3 hPa West 3.2 mph /  5.1 km/h 12.9 mph /  20.8 km/h 87 % 0.0 in /  0 mm
05:12 4.8 °F /  -15.1 °C 2.8 °F /  -16.2 °C 1015.5 in /  34384.8 hPa West 3.2 mph /  5.1 km/h 12.9 mph /  20.8 km/h 87 % 0.0 in /  0 mm
05:17 4.7 °F /  -15.2 °C 2.7 °F /  -16.3 °C 1015.5 in /  34384.8 hPa WNW 3.2 mph /  5.1 km/h 12.9 mph /  20.8 km/h 87 % 0.0 in /  0 mm
05:22 4.7 °F /  -15.2 °C 2.7 °F /  -16.3 °C 1015.5 in /  34384.8 hPa WNW 3.2 mph /  5.1 km/h 12.9 mph /  20.8 km/h 87 % 0.0 in /  0 mm
05:32 4.5 °F /  -15.3 °C 2.7 °F /  -16.3 °C 1015.5 in /  34384.8 hPa WNW 3.2 mph /  5.1 km/h 8.0 mph /  12.9 km/h 88 % 0.0 in /  0 mm
05:37 4.4 °F /  -15.3 °C 2.6 °F /  -16.3 °C 1015.5 in /  34384.8 hPa West 1.6 mph /  2.6 km/h 8.0 mph /  12.9 km/h 88 % 0.0 in /  0 mm
05:42 4.3 °F /  -15.4 °C 2.5 °F /  -16.4 °C 1015.5 in /  34384.8 hPa West 6.4 mph /  10.3 km/h 8.0 mph /  12.9 km/h 88 % 0.0 in /  0 mm
05:47 4.3 °F /  -15.4 °C 2.5 °F /  -16.4 °C 1015.8 in /  34395 hPa NW 1.6 mph /  2.6 km/h 11.3 mph /  18.2 km/h 88 % 0.0 in /  0 mm
05:52 4.2 °F /  -15.4 °C 2.5 °F /  -16.4 °C 1015.8 in /  34395 hPa WNW 8.0 mph /  12.9 km/h 11.3 mph /  18.2 km/h 89 % 0.0 in /  0 mm
05:57 4.2 °F /  -15.4 °C 2.5 °F /  -16.4 °C 1015.8 in /  34395 hPa WNW 6.4 mph /  10.3 km/h 11.3 mph /  18.2 km/h 89 % 0.0 in /  0 mm
06:02 4.2 °F /  -15.4 °C 2.5 °F /  -16.4 °C 1015.8 in /  34395 hPa West 1.6 mph /  2.6 km/h 11.3 mph /  18.2 km/h 89 % 0.0 in /  0 mm
06:12 4.0 °F /  -15.6 °C 2.4 °F /  -16.4 °C 1015.8 in /  34395 hPa West 3.2 mph /  5.1 km/h 14.5 mph /  23.3 km/h 89 % 0.0 in /  0 mm
06:17 3.9 °F /  -15.6 °C 2.3 °F /  -16.5 °C 1015.8 in /  34395 hPa West 1.6 mph /  2.6 km/h 14.5 mph /  23.3 km/h 89 % 0.0 in /  0 mm
06:22 3.9 °F /  -15.6 °C 2.3 °F /  -16.5 °C 1015.8 in /  34395 hPa WNW 6.4 mph /  10.3 km/h 14.5 mph /  23.3 km/h 89 % 0.0 in /  0 mm
06:27 3.9 °F /  -15.6 °C 2.3 °F /  -16.5 °C 1015.8 in /  34395 hPa NW 3.2 mph /  5.1 km/h 8.0 mph /  12.9 km/h 89 % 0.0 in /  0 mm
06:32 3.9 °F /  -15.6 °C 2.3 °F /  -16.5 °C 1015.8 in /  34395 hPa WNW 3.2 mph /  5.1 km/h 8.0 mph /  12.9 km/h 89 % 0.0 in /  0 mm
06:37 3.8 °F /  -15.7 °C 2.2 °F /  -16.6 °C 1015.8 in /  34395 hPa West 1.6 mph /  2.6 km/h 8.0 mph /  12.9 km/h 89 % 0.0 in /  0 mm
06:47 3.6 °F /  -15.8 °C 2.1 °F /  -16.6 °C 1015.8 in /  34395 hPa WNW 4.8 mph /  7.7 km/h 11.3 mph /  18.2 km/h 90 % 0.0 in /  0 mm
06:52 3.6 °F /  -15.8 °C 2.1 °F /  -16.6 °C 1015.8 in /  34395 hPa WNW 1.6 mph /  2.6 km/h 11.3 mph /  18.2 km/h 90 % 0.0 in /  0 mm
06:57 3.6 °F /  -15.8 °C 2.1 °F /  -16.6 °C 1015.8 in /  34395 hPa WNW 3.2 mph /  5.1 km/h 11.3 mph /  18.2 km/h 90 % 0.0 in /  0 mm
07:02 3.5 °F /  -15.8 °C 2.0 °F /  -16.7 °C 1016.1 in /  34405.1 hPa WNW 4.8 mph /  7.7 km/h 11.3 mph /  18.2 km/h 90 % 0.0 in /  0 mm
07:12 3.4 °F /  -15.9 °C 2.1 °F /  -16.6 °C 1016.1 in /  34405.1 hPa NW 3.2 mph /  5.1 km/h 11.3 mph /  18.2 km/h 91 % 0.0 in /  0 mm
07:17 3.4 °F /  -15.9 °C 2.1 °F /  -16.6 °C 1016.1 in /  34405.1 hPa WNW 1.6 mph /  2.6 km/h 8.0 mph /  12.9 km/h 91 % 0.0 in /  0 mm
07:22 3.4 °F /  -15.9 °C 2.1 °F /  -16.6 °C 1016.1 in /  34405.1 hPa WNW 1.6 mph /  2.6 km/h 8.0 mph /  12.9 km/h 91 % 0.0 in /  0 mm
07:32 3.3 °F /  -15.9 °C 2.0 °F /  -16.7 °C 1016.1 in /  34405.1 hPa WNW 6.4 mph /  10.3 km/h 9.7 mph /  15.6 km/h 91 % 0.0 in /  0 mm
07:37 3.3 °F /  -15.9 °C 2.0 °F /  -16.7 °C 1016.1 in /  34405.1 hPa NW 3.2 mph /  5.1 km/h 9.7 mph /  15.6 km/h 91 % 0.0 in /  0 mm
07:42 3.3 °F /  -15.9 °C 2.1 °F /  -16.6 °C 1016.5 in /  34418.7 hPa NW 6.4 mph /  10.3 km/h 9.7 mph /  15.6 km/h 92 % 0.0 in /  0 mm
07:47 3.2 °F /  -16 °C 2.0 °F /  -16.7 °C 1016.5 in /  34418.7 hPa WNW 6.4 mph /  10.3 km/h 9.7 mph /  15.6 km/h 92 % 0.0 in /  0 mm
07:52 3.2 °F /  -16 °C 2.0 °F /  -16.7 °C 1016.5 in /  34418.7 hPa NW 1.6 mph /  2.6 km/h 9.7 mph /  15.6 km/h 92 % 0.0 in /  0 mm
08:02 3.2 °F /  -16 °C 2.0 °F /  -16.7 °C 1016.5 in /  34418.7 hPa NW 3.2 mph /  5.1 km/h 9.7 mph /  15.6 km/h 92 % 0.0 in /  0 mm
08:12 3.3 °F /  -15.9 °C 2.1 °F /  -16.6 °C 1016.8 in /  34428.8 hPa WNW 4.8 mph /  7.7 km/h 9.7 mph /  15.6 km/h 92 % 0.0 in /  0 mm
08:17 3.3 °F /  -15.9 °C 2.0 °F /  -16.7 °C 1016.8 in /  34428.8 hPa NNW 3.2 mph /  5.1 km/h 11.3 mph /  18.2 km/h 91 % 0.0 in /  0 mm
08:22 3.4 °F /  -15.9 °C 2.1 °F /  -16.6 °C 1016.8 in /  34428.8 hPa NW 1.6 mph /  2.6 km/h 11.3 mph /  18.2 km/h 91 % 0.0 in /  0 mm
08:32 3.7 °F /  -15.7 °C 2.4 °F /  -16.4 °C 1017.2 in /  34442.4 hPa Calm   11.3 mph /  18.2 km/h 91 % 0.0 in /  0 mm
08:42 3.9 °F /  -15.6 °C 2.4 °F /  -16.4 °C 1017.2 in /  34442.4 hPa West 3.2 mph /  5.1 km/h 12.9 mph /  20.8 km/h 90 % 0.0 in /  0 mm
08:52 4.2 °F /  -15.4 °C 2.5 °F /  -16.4 °C 1017.2 in /  34442.4 hPa NNW 3.2 mph /  5.1 km/h 14.5 mph /  23.3 km/h 89 % 0.0 in /  0 mm
08:57 4.3 °F /  -15.4 °C 2.6 °F /  -16.3 °C 1017.2 in /  34442.4 hPa NW 3.2 mph /  5.1 km/h 16.1 mph /  25.9 km/h 89 % 0.0 in /  0 mm
09:02 4.4 °F /  -15.3 °C 2.7 °F /  -16.3 °C 1017.2 in /  34442.4 hPa WNW 9.7 mph /  15.6 km/h 16.1 mph /  25.9 km/h 89 % 0.0 in /  0 mm
09:12 4.6 °F /  -15.2 °C 2.8 °F /  -16.2 °C 1017.2 in /  34442.4 hPa WNW 11.3 mph /  18.2 km/h 14.5 mph /  23.3 km/h 88 % 0.0 in /  0 mm
09:17 4.8 °F /  -15.1 °C 3.0 °F /  -16.1 °C 1017.5 in /  34452.6 hPa West 3.2 mph /  5.1 km/h 19.3 mph /  31.1 km/h 88 % 0.0 in /  0 mm
09:22 4.9 °F /  -15.1 °C 2.9 °F /  -16.2 °C 1017.5 in /  34452.6 hPa NW 6.4 mph /  10.3 km/h 19.3 mph /  31.1 km/h 87 % 0.0 in /  0 mm
09:32 5.2 °F /  -14.9 °C 3.2 °F /  -16 °C 1017.5 in /  34452.6 hPa NW 4.8 mph /  7.7 km/h 19.3 mph /  31.1 km/h 87 % 0.0 in /  0 mm
09:37 5.3 °F /  -14.8 °C 3.1 °F /  -16.1 °C 1017.5 in /  34452.6 hPa WNW 12.9 mph /  20.8 km/h 14.5 mph /  23.3 km/h 86 % 0.0 in /  0 mm
09:42 5.4 °F /  -14.8 °C 3.2 °F /  -16 °C 1017.5 in /  34452.6 hPa West 3.2 mph /  5.1 km/h 14.5 mph /  23.3 km/h 86 % 0.0 in /  0 mm
09:52 5.6 °F /  -14.7 °C 3.3 °F /  -15.9 °C 1017.8 in /  34462.7 hPa NNW 9.7 mph /  15.6 km/h 16.1 mph /  25.9 km/h 85 % 0.0 in /  0 mm
09:57 5.6 °F /  -14.7 °C 3.3 °F /  -15.9 °C 1017.8 in /  34462.7 hPa WSW 11.3 mph /  18.2 km/h 16.1 mph /  25.9 km/h 85 % 0.0 in /  0 mm
10:02 5.7 °F /  -14.6 °C 3.2 °F /  -16 °C 1017.8 in /  34462.7 hPa WNW 4.8 mph /  7.7 km/h 16.1 mph /  25.9 km/h 84 % 0.0 in /  0 mm
10:07 5.9 °F /  -14.5 °C 3.4 °F /  -15.9 °C 1017.8 in /  34462.7 hPa Calm   14.5 mph /  23.3 km/h 84 % 0.0 in /  0 mm
10:12 6.0 °F /  -14.4 °C 3.3 °F /  -15.9 °C 1017.8 in /  34462.7 hPa WNW 8.0 mph /  12.9 km/h 14.5 mph /  23.3 km/h 83 % 0.0 in /  0 mm
10:17 6.2 °F /  -14.3 °C 3.5 °F /  -15.8 °C 1017.8 in /  34462.7 hPa NW 3.2 mph /  5.1 km/h 16.1 mph /  25.9 km/h 83 % 0.0 in /  0 mm
10:22 6.3 °F /  -14.3 °C 3.6 °F /  -15.8 °C 1017.8 in /  34462.7 hPa NW 9.7 mph /  15.6 km/h 16.1 mph /  25.9 km/h 83 % 0.0 in /  0 mm
10:32 6.4 °F /  -14.2 °C 3.2 °F /  -16 °C 1017.8 in /  34462.7 hPa WNW 14.5 mph /  23.3 km/h 14.5 mph /  23.3 km/h 80 % 0.0 in /  0 mm
10:42 6.6 °F /  -14.1 °C 3.4 °F /  -15.9 °C 1017.8 in /  34462.7 hPa WNW 6.4 mph /  10.3 km/h 22.5 mph /  36.2 km/h 80 % 0.0 in /  0 mm
10:52 6.7 °F /  -14.1 °C 3.5 °F /  -15.8 °C 1018.2 in /  34476.3 hPa WNW 1.6 mph /  2.6 km/h 20.9 mph /  33.6 km/h 80 % 0.0 in /  0 mm
10:57 6.8 °F /  -14 °C 3.4 °F /  -15.9 °C 1018.2 in /  34476.3 hPa WNW 3.2 mph /  5.1 km/h 25.7 mph /  41.4 km/h 79 % 0.0 in /  0 mm
11:02 6.8 °F /  -14 °C 3.6 °F /  -15.8 °C 1018.2 in /  34476.3 hPa North 9.7 mph /  15.6 km/h 25.7 mph /  41.4 km/h 80 % 0.0 in /  0 mm
11:12 6.7 °F /  -14.1 °C 3.1 °F /  -16.1 °C 1017.8 in /  34462.7 hPa NW 8.0 mph /  12.9 km/h 19.3 mph /  31.1 km/h 78 % 0.0 in /  0 mm
11:22 6.7 °F /  -14.1 °C 3.1 °F /  -16.1 °C 1018.2 in /  34476.3 hPa WNW 6.4 mph /  10.3 km/h 17.7 mph /  28.5 km/h 78 % 0.0 in /  0 mm
11:32 7.1 °F /  -13.8 °C 3.3 °F /  -15.9 °C 1018.2 in /  34476.3 hPa NW 3.2 mph /  5.1 km/h 20.9 mph /  33.6 km/h 77 % 0.0 in /  0 mm
11:37 7.1 °F /  -13.8 °C 3.2 °F /  -16 °C 1018.5 in /  34486.4 hPa WNW 9.7 mph /  15.6 km/h 20.9 mph /  33.6 km/h 76 % 0.0 in /  0 mm
11:42 6.9 °F /  -13.9 °C 3.0 °F /  -16.1 °C 1018.5 in /  34486.4 hPa NNW 9.7 mph /  15.6 km/h 20.9 mph /  33.6 km/h 76 % 0.0 in /  0 mm
11:52 7.0 °F /  -13.9 °C 3.1 °F /  -16.1 °C 1018.5 in /  34486.4 hPa NW 11.3 mph /  18.2 km/h 16.1 mph /  25.9 km/h 76 % 0.0 in /  0 mm
11:57 7.1 °F /  -13.8 °C 3.2 °F /  -16 °C 1018.5 in /  34486.4 hPa West 4.8 mph /  7.7 km/h 19.3 mph /  31.1 km/h 76 % 0.0 in /  0 mm
12:02 7.1 °F /  -13.8 °C 3.2 °F /  -16 °C 1018.5 in /  34486.4 hPa West 4.8 mph /  7.7 km/h 19.3 mph /  31.1 km/h 76 % 0.0 in /  0 mm
12:12 7.8 °F /  -13.4 °C 4.4 °F /  -15.3 °C 1018.2 in /  34476.3 hPa WNW 9.7 mph /  15.6 km/h 20.9 mph /  33.6 km/h 79 % 0.0 in /  0 mm
12:17 7.7 °F /  -13.5 °C 3.5 °F /  -15.8 °C 1018.2 in /  34476.3 hPa NW 6.4 mph /  10.3 km/h 19.3 mph /  31.1 km/h 75 % 0.0 in /  0 mm
12:22 7.6 °F /  -13.6 °C 2.9 °F /  -16.2 °C 1018.2 in /  34476.3 hPa WNW 11.3 mph /  18.2 km/h 19.3 mph /  31.1 km/h 72 % 0.0 in /  0 mm
12:27 7.8 °F /  -13.4 °C 3.8 °F /  -15.7 °C 1018.2 in /  34476.3 hPa NNW 4.8 mph /  7.7 km/h 19.3 mph /  31.1 km/h 76 % 0.0 in /  0 mm
12:32 7.6 °F /  -13.6 °C 2.9 °F /  -16.2 °C 1018.2 in /  34476.3 hPa NW 14.5 mph /  23.3 km/h 19.3 mph /  31.1 km/h 72 % 0.0 in /  0 mm
12:42 6.8 °F /  -14 °C 2.5 °F /  -16.4 °C 1018.2 in /  34476.3 hPa WNW 6.4 mph /  10.3 km/h 22.5 mph /  36.2 km/h 74 % 0.0 in /  0 mm
12:47 6.9 °F /  -13.9 °C 2.4 °F /  -16.4 °C 1018.2 in /  34476.3 hPa NW 4.8 mph /  7.7 km/h 22.5 mph /  36.2 km/h 73 % 0.0 in /  0 mm
12:52 7.2 °F /  -13.8 °C 2.5 °F /  -16.4 °C 1018.2 in /  34476.3 hPa West 11.3 mph /  18.2 km/h 20.9 mph /  33.6 km/h 72 % 0.0 in /  0 mm
12:57 7.7 °F /  -13.5 °C 3.0 °F /  -16.1 °C 1018.2 in /  34476.3 hPa WNW 9.7 mph /  15.6 km/h 20.9 mph /  33.6 km/h 72 % 0.0 in /  0 mm
13:02 7.9 °F /  -13.4 °C 2.8 °F /  -16.2 °C 1018.2 in /  34476.3 hPa NNW 8.0 mph /  12.9 km/h 20.9 mph /  33.6 km/h 70 % 0.0 in /  0 mm
13:12 7.4 °F /  -13.7 °C 1.5 °F /  -16.9 °C 1018.5 in /  34486.4 hPa NW 9.7 mph /  15.6 km/h 20.9 mph /  33.6 km/h 66 % 0.0 in /  0 mm
13:17 7.1 °F /  -13.8 °C 1.6 °F /  -16.9 °C 1018.2 in /  34476.3 hPa NNW 8.0 mph /  12.9 km/h 19.3 mph /  31.1 km/h 68 % 0.0 in /  0 mm
13:22 7.2 °F /  -13.8 °C 2.3 °F /  -16.5 °C 1018.2 in /  34476.3 hPa NW 4.8 mph /  7.7 km/h 19.3 mph /  31.1 km/h 71 % 0.0 in /  0 mm
13:27 7.6 °F /  -13.6 °C 2.7 °F /  -16.3 °C 1018.2 in /  34476.3 hPa WNW 4.8 mph /  7.7 km/h 19.3 mph /  31.1 km/h 71 % 0.0 in /  0 mm
13:32 7.8 °F /  -13.4 °C 2.3 °F /  -16.5 °C 1018.2 in /  34476.3 hPa WNW 8.0 mph /  12.9 km/h 19.3 mph /  31.1 km/h 68 % 0.0 in /  0 mm
13:37 7.8 °F /  -13.4 °C 2.5 °F /  -16.4 °C 1018.2 in /  34476.3 hPa NW 4.8 mph /  7.7 km/h 14.5 mph /  23.3 km/h 69 % 0.0 in /  0 mm
13:42 7.6 °F /  -13.6 °C 2.1 °F /  -16.6 °C 1018.2 in /  34476.3 hPa North 9.7 mph /  15.6 km/h 14.5 mph /  23.3 km/h 68 % 0.0 in /  0 mm
13:47 7.6 °F /  -13.6 °C 1.4 °F /  -17 °C 1018.2 in /  34476.3 hPa West 12.9 mph /  20.8 km/h 16.1 mph /  25.9 km/h 65 % 0.0 in /  0 mm
13:52 7.5 °F /  -13.6 °C 1.6 °F /  -16.9 °C 1018.2 in /  34476.3 hPa NW 12.9 mph /  20.8 km/h 16.1 mph /  25.9 km/h 66 % 0.0 in /  0 mm
13:57 7.4 °F /  -13.7 °C 1.5 °F /  -16.9 °C 1018.2 in /  34476.3 hPa NW 8.0 mph /  12.9 km/h 20.9 mph /  33.6 km/h 66 % 0.0 in /  0 mm
14:02 7.7 °F /  -13.5 °C 2.4 °F /  -16.4 °C 1018.2 in /  34476.3 hPa WSW 12.9 mph /  20.8 km/h 20.9 mph /  33.6 km/h 69 % 0.0 in /  0 mm
14:12 8.1 °F /  -13.3 °C 1.7 °F /  -16.8 °C 1017.8 in /  34462.7 hPa NW 16.1 mph /  25.9 km/h 17.7 mph /  28.5 km/h 64 % 0.0 in /  0 mm
14:17 7.8 °F /  -13.4 °C 1.2 °F /  -17.1 °C 1018.2 in /  34476.3 hPa NW 8.0 mph /  12.9 km/h 24.1 mph /  38.8 km/h 63 % 0.0 in /  0 mm
14:22 7.7 °F /  -13.5 °C 1.5 °F /  -16.9 °C 1018.2 in /  34476.3 hPa NW 11.3 mph /  18.2 km/h 24.1 mph /  38.8 km/h 65 % 0.0 in /  0 mm
14:27 7.7 °F /  -13.5 °C 2.0 °F /  -16.7 °C 1018.2 in /  34476.3 hPa NNW 8.0 mph /  12.9 km/h 20.9 mph /  33.6 km/h 67 % 0.0 in /  0 mm
14:32 7.6 °F /  -13.6 °C 2.1 °F /  -16.6 °C 1018.2 in /  34476.3 hPa WNW 6.4 mph /  10.3 km/h 20.9 mph /  33.6 km/h 68 % 0.0 in /  0 mm
14:42 7.5 °F /  -13.6 °C 1.8 °F /  -16.8 °C 1018.2 in /  34476.3 hPa NW 3.2 mph /  5.1 km/h 19.3 mph /  31.1 km/h 67 % 0.0 in /  0 mm
14:52 7.6 °F /  -13.6 °C 1.9 °F /  -16.7 °C 1018.2 in /  34476.3 hPa NW 3.2 mph /  5.1 km/h 19.3 mph /  31.1 km/h 67 % 0.0 in /  0 mm
14:57 7.7 °F /  -13.5 °C 1.7 °F /  -16.8 °C 1018.2 in /  34476.3 hPa NW 8.0 mph /  12.9 km/h 20.9 mph /  33.6 km/h 66 % 0.0 in /  0 mm
15:02 7.6 °F /  -13.6 °C 1.4 °F /  -17 °C 1018.2 in /  34476.3 hPa NW 6.4 mph /  10.3 km/h 20.9 mph /  33.6 km/h 65 % 0.0 in /  0 mm
15:07 7.8 °F /  -13.4 °C 1.6 °F /  -16.9 °C 1018.2 in /  34476.3 hPa North 14.5 mph /  23.3 km/h 19.3 mph /  31.1 km/h 65 % 0.0 in /  0 mm
15:12 8.0 °F /  -13.3 °C 1.6 °F /  -16.9 °C 1018.5 in /  34486.4 hPa North 11.3 mph /  18.2 km/h 19.3 mph /  31.1 km/h 64 % 0.0 in /  0 mm
15:17 7.9 °F /  -13.4 °C 1.5 °F /  -16.9 °C 1018.5 in /  34486.4 hPa WNW 8.0 mph /  12.9 km/h 22.5 mph /  36.2 km/h 64 % 0.0 in /  0 mm
15:22 8.0 °F /  -13.3 °C 1.2 °F /  -17.1 °C 1018.5 in /  34486.4 hPa WNW 11.3 mph /  18.2 km/h 22.5 mph /  36.2 km/h 62 % 0.0 in /  0 mm
15:27 8.2 °F /  -13.2 °C 1.6 °F /  -16.9 °C 1018.5 in /  34486.4 hPa WNW 16.1 mph /  25.9 km/h 24.1 mph /  38.8 km/h 63 % 0.0 in /  0 mm
15:32 8.3 °F /  -13.2 °C 2.1 °F /  -16.6 °C 1018.5 in /  34486.4 hPa NW 9.7 mph /  15.6 km/h 24.1 mph /  38.8 km/h 65 % 0.0 in /  0 mm
15:42 7.8 °F /  -13.4 °C 1.4 °F /  -17 °C 1018.5 in /  34486.4 hPa NNW 14.5 mph /  23.3 km/h 24.1 mph /  38.8 km/h 64 % 0.0 in /  0 mm
15:52 7.6 °F /  -13.6 °C 1.4 °F /  -17 °C 1018.8 in /  34496.6 hPa NW 8.0 mph /  12.9 km/h 27.4 mph /  44.1 km/h 65 % 0.0 in /  0 mm
15:57 7.6 °F /  -13.6 °C 1.7 °F /  -16.8 °C 1018.8 in /  34496.6 hPa North 4.8 mph /  7.7 km/h 22.5 mph /  36.2 km/h 66 % 0.0 in /  0 mm
16:02 7.6 °F /  -13.6 °C 1.7 °F /  -16.8 °C 1018.8 in /  34496.6 hPa NNW 6.4 mph /  10.3 km/h 22.5 mph /  36.2 km/h 66 % 0.0 in /  0 mm
16:07 7.8 °F /  -13.4 °C 1.8 °F /  -16.8 °C 1018.8 in /  34496.6 hPa WNW 8.0 mph /  12.9 km/h 19.3 mph /  31.1 km/h 66 % 0.0 in /  0 mm
16:12 7.9 °F /  -13.4 °C 2.2 °F /  -16.6 °C 1018.8 in /  34496.6 hPa WNW 6.4 mph /  10.3 km/h 19.3 mph /  31.1 km/h 67 % 0.0 in /  0 mm
16:17 7.9 °F /  -13.4 °C 1.7 °F /  -16.8 °C 1018.8 in /  34496.6 hPa NNW 1.6 mph /  2.6 km/h 14.5 mph /  23.3 km/h 65 % 0.0 in /  0 mm
16:22 7.7 °F /  -13.5 °C 1.5 °F /  -16.9 °C 1018.8 in /  34496.6 hPa WNW 4.8 mph /  7.7 km/h 14.5 mph /  23.3 km/h 65 % 0.0 in /  0 mm
16:27 7.6 °F /  -13.6 °C 1.9 °F /  -16.7 °C 1018.8 in /  34496.6 hPa NNW 9.7 mph /  15.6 km/h 16.1 mph /  25.9 km/h 67 % 0.0 in /  0 mm
16:32 7.5 °F /  -13.6 °C 0.9 °F /  -17.3 °C 1018.8 in /  34496.6 hPa NW 11.3 mph /  18.2 km/h 16.1 mph /  25.9 km/h 63 % 0.0 in /  0 mm
16:42 7.4 °F /  -13.7 °C 1.3 °F /  -17.1 °C 1019.2 in /  34510.1 hPa NNW 6.4 mph /  10.3 km/h 16.1 mph /  25.9 km/h 65 % 0.0 in /  0 mm
16:52 7.6 °F /  -13.6 °C 1.2 °F /  -17.1 °C 1019.2 in /  34510.1 hPa WNW 6.4 mph /  10.3 km/h 12.9 mph /  20.8 km/h 64 % 0.0 in /  0 mm
16:57 7.7 °F /  -13.5 °C 1.7 °F /  -16.8 °C 1019.2 in /  34510.1 hPa NW 3.2 mph /  5.1 km/h 16.1 mph /  25.9 km/h 66 % 0.0 in /  0 mm
17:02 7.6 °F /  -13.6 °C 1.7 °F /  -16.8 °C 1019.2 in /  34510.1 hPa WNW 6.4 mph /  10.3 km/h 16.1 mph /  25.9 km/h 66 % 0.0 in /  0 mm
17:12 7.5 °F /  -13.6 °C 1.3 °F /  -17.1 °C 1019.2 in /  34510.1 hPa NW 9.7 mph /  15.6 km/h 11.3 mph /  18.2 km/h 65 % 0.0 in /  0 mm
17:17 7.6 °F /  -13.6 °C 1.0 °F /  -17.2 °C 1019.2 in /  34510.1 hPa NW 3.2 mph /  5.1 km/h 20.9 mph /  33.6 km/h 63 % 0.0 in /  0 mm
17:22 7.6 °F /  -13.6 °C 1.2 °F /  -17.1 °C 1019.2 in /  34510.1 hPa NW 4.8 mph /  7.7 km/h 20.9 mph /  33.6 km/h 64 % 0.0 in /  0 mm
17:27 7.6 °F /  -13.6 °C 1.2 °F /  -17.1 °C 1019.5 in /  34520.3 hPa NW 3.2 mph /  5.1 km/h 20.9 mph /  33.6 km/h 64 % 0.0 in /  0 mm
17:32 7.5 °F /  -13.6 °C 1.3 °F /  -17.1 °C 1019.5 in /  34520.3 hPa NW 12.9 mph /  20.8 km/h 20.9 mph /  33.6 km/h 65 % 0.0 in /  0 mm
17:37 7.4 °F /  -13.7 °C 1.5 °F /  -16.9 °C 1019.5 in /  34520.3 hPa WNW 11.3 mph /  18.2 km/h 17.7 mph /  28.5 km/h 66 % 0.0 in /  0 mm
17:42 7.6 °F /  -13.6 °C 1.7 °F /  -16.8 °C 1019.5 in /  34520.3 hPa WNW 3.2 mph /  5.1 km/h 17.7 mph /  28.5 km/h 66 % 0.0 in /  0 mm
17:52 7.5 °F /  -13.6 °C 1.6 °F /  -16.9 °C 1019.9 in /  34533.8 hPa WNW 3.2 mph /  5.1 km/h 16.1 mph /  25.9 km/h 66 % 0.0 in /  0 mm
17:57 7.4 °F /  -13.7 °C 1.3 °F /  -17.1 °C 1019.9 in /  34533.8 hPa NNW 4.8 mph /  7.7 km/h 17.7 mph /  28.5 km/h 65 % 0.0 in /  0 mm
18:02 7.4 °F /  -13.7 °C 1.7 °F /  -16.8 °C 1019.9 in /  34533.8 hPa WNW 4.8 mph /  7.7 km/h 17.7 mph /  28.5 km/h 67 % 0.0 in /  0 mm
18:12 7.3 °F /  -13.7 °C 1.6 °F /  -16.9 °C 1019.9 in /  34533.8 hPa NNW 4.8 mph /  7.7 km/h 17.7 mph /  28.5 km/h 67 % 0.0 in /  0 mm
18:17 7.2 °F /  -13.8 °C 1.7 °F /  -16.8 °C 1020.2 in /  34544 hPa NNW 3.2 mph /  5.1 km/h 12.9 mph /  20.8 km/h 68 % 0.0 in /  0 mm
18:22 7.1 °F /  -13.8 °C 1.4 °F /  -17 °C 1020.2 in /  34544 hPa NW 4.8 mph /  7.7 km/h 12.9 mph /  20.8 km/h 67 % 0.0 in /  0 mm
18:32 6.9 °F /  -13.9 °C 1.6 °F /  -16.9 °C 1020.2 in /  34544 hPa NW 6.4 mph /  10.3 km/h 14.5 mph /  23.3 km/h 69 % 0.0 in /  0 mm
18:42 6.8 °F /  -14 °C 1.7 °F /  -16.8 °C 1020.5 in /  34554.1 hPa NNW 9.7 mph /  15.6 km/h 11.3 mph /  18.2 km/h 70 % 0.0 in /  0 mm
18:47 6.7 °F /  -14.1 °C 1.6 °F /  -16.9 °C 1020.5 in /  34554.1 hPa NW 6.4 mph /  10.3 km/h 11.3 mph /  18.2 km/h 70 % 0.0 in /  0 mm
18:52 6.6 °F /  -14.1 °C 1.7 °F /  -16.8 °C 1020.9 in /  34567.7 hPa NW 4.8 mph /  7.7 km/h 16.1 mph /  25.9 km/h 71 % 0.0 in /  0 mm
18:57 6.4 °F /  -14.2 °C 1.7 °F /  -16.8 °C 1020.9 in /  34567.7 hPa NNE 6.4 mph /  10.3 km/h 12.9 mph /  20.8 km/h 72 % 0.0 in /  0 mm
19:02 6.2 °F /  -14.3 °C 1.7 °F /  -16.8 °C 1020.9 in /  34567.7 hPa North 6.4 mph /  10.3 km/h 12.9 mph /  20.8 km/h 73 % 0.0 in /  0 mm
19:12 5.9 °F /  -14.5 °C 1.6 °F /  -16.9 °C 1021.2 in /  34577.8 hPa North 6.4 mph /  10.3 km/h 8.0 mph /  12.9 km/h 74 % 0.0 in /  0 mm
19:17 5.8 °F /  -14.6 °C 1.5 °F /  -16.9 °C 1021.2 in /  34577.8 hPa North 4.8 mph /  7.7 km/h 11.3 mph /  18.2 km/h 74 % 0.0 in /  0 mm
19:22 5.7 °F /  -14.6 °C 1.4 °F /  -17 °C 1021.6 in /  34591.4 hPa NNW 4.8 mph /  7.7 km/h 11.3 mph /  18.2 km/h 74 % 0.0 in /  0 mm
19:32 5.4 °F /  -14.8 °C 1.1 °F /  -17.2 °C 1021.6 in /  34591.4 hPa NNW 3.2 mph /  5.1 km/h 8.0 mph /  12.9 km/h 74 % 0.0 in /  0 mm
19:37 5.3 °F /  -14.8 °C 1.0 °F /  -17.2 °C 1021.6 in /  34591.4 hPa NNW 1.6 mph /  2.6 km/h 6.4 mph /  10.3 km/h 74 % 0.0 in /  0 mm
19:42 5.2 °F /  -14.9 °C 0.9 °F /  -17.3 °C 1021.6 in /  34591.4 hPa NNW 1.6 mph /  2.6 km/h 6.4 mph /  10.3 km/h 74 % 0.0 in /  0 mm
19:47 5.1 °F /  -14.9 °C 0.8 °F /  -17.3 °C 1021.6 in /  34591.4 hPa NNW 3.2 mph /  5.1 km/h 6.4 mph /  10.3 km/h 74 % 0.0 in /  0 mm
19:52 5.0 °F /  -15 °C 0.8 °F /  -17.3 °C 1021.9 in /  34601.5 hPa North 3.2 mph /  5.1 km/h 6.4 mph /  10.3 km/h 74 % 0.0 in /  0 mm
19:57 4.9 °F /  -15.1 °C 0.8 °F /  -17.3 °C 1021.9 in /  34601.5 hPa NNW 1.6 mph /  2.6 km/h 6.4 mph /  10.3 km/h 75 % 0.0 in /  0 mm
20:02 4.8 °F /  -15.1 °C 0.9 °F /  -17.3 °C 1021.9 in /  34601.5 hPa Calm   6.4 mph /  10.3 km/h 76 % 0.0 in /  0 mm
20:12 4.7 °F /  -15.2 °C 0.8 °F /  -17.3 °C 1021.9 in /  34601.5 hPa WNW 1.6 mph /  2.6 km/h 4.8 mph /  7.7 km/h 76 % 0.0 in /  0 mm
20:22 4.7 °F /  -15.2 °C 0.8 °F /  -17.3 °C 1021.9 in /  34601.5 hPa WNW 3.2 mph /  5.1 km/h 3.2 mph /  5.1 km/h 76 % 0.0 in /  0 mm
20:27 4.7 °F /  -15.2 °C 0.8 °F /  -17.3 °C 1021.9 in /  34601.5 hPa WNW 1.6 mph /  2.6 km/h 4.8 mph /  7.7 km/h 76 % 0.0 in /  0 mm
20:32 4.6 °F /  -15.2 °C 0.7 °F /  -17.4 °C 1021.9 in /  34601.5 hPa NW 1.6 mph /  2.6 km/h 4.8 mph /  7.7 km/h 76 % 0.0 in /  0 mm
20:37 4.6 °F /  -15.2 °C 0.7 °F /  -17.4 °C 1022.2 in /  34611.7 hPa Calm   3.2 mph /  5.1 km/h 76 % 0.0 in /  0 mm
20:42 4.5 °F /  -15.3 °C 0.6 °F /  -17.4 °C 1022.2 in /  34611.7 hPa Calm   3.2 mph /  5.1 km/h 76 % 0.0 in /  0 mm
20:47 4.4 °F /  -15.3 °C 0.5 °F /  -17.5 °C 1022.2 in /  34611.7 hPa Calm   1.6 mph /  2.6 km/h 76 % 0.0 in /  0 mm
20:52 4.4 °F /  -15.3 °C 0.5 °F /  -17.5 °C 1022.2 in /  34611.7 hPa Calm   1.6 mph /  2.6 km/h 76 % 0.0 in /  0 mm
20:57 4.4 °F /  -15.3 °C 0.5 °F /  -17.5 °C 1022.2 in /  34611.7 hPa NNW 1.6 mph /  2.6 km/h 3.2 mph /  5.1 km/h 76 % 0.0 in /  0 mm
21:02 4.3 °F /  -15.4 °C 0.6 °F /  -17.4 °C 1022.6 in /  34625.2 hPa NNW 1.6 mph /  2.6 km/h 3.2 mph /  5.1 km/h 77 % 0.0 in /  0 mm
21:07 4.1 °F /  -15.5 °C 0.6 °F /  -17.4 °C 1022.6 in /  34625.2 hPa NNW 1.6 mph /  2.6 km/h 4.8 mph /  7.7 km/h 78 % 0.0 in /  0 mm
21:12 3.9 °F /  -15.6 °C 0.4 °F /  -17.6 °C 1022.6 in /  34625.2 hPa NNW 3.2 mph /  5.1 km/h 4.8 mph /  7.7 km/h 78 % 0.0 in /  0 mm
21:17 3.9 °F /  -15.6 °C 0.6 °F /  -17.4 °C 1022.6 in /  34625.2 hPa NNW 1.6 mph /  2.6 km/h 4.8 mph /  7.7 km/h 79 % 0.0 in /  0 mm
21:22 3.8 °F /  -15.7 °C 0.5 °F /  -17.5 °C 1022.6 in /  34625.2 hPa Calm   4.8 mph /  7.7 km/h 79 % 0.0 in /  0 mm
21:32 3.7 °F /  -15.7 °C 0.6 °F /  -17.4 °C 1022.6 in /  34625.2 hPa WNW 1.6 mph /  2.6 km/h 4.8 mph /  7.7 km/h 80 % 0.0 in /  0 mm
21:42 3.4 °F /  -15.9 °C 0.3 °F /  -17.6 °C 1022.9 in /  34635.4 hPa Calm   3.2 mph /  5.1 km/h 80 % 0.0 in /  0 mm
21:52 3.2 °F /  -16 °C 0.3 °F /  -17.6 °C 1022.9 in /  34635.4 hPa NNW 3.2 mph /  5.1 km/h 3.2 mph /  5.1 km/h 81 % 0.0 in /  0 mm
21:57 3.3 °F /  -15.9 °C 0.4 °F /  -17.6 °C 1022.9 in /  34635.4 hPa Calm   3.2 mph /  5.1 km/h 81 % 0.0 in /  0 mm
22:02 3.3 °F /  -15.9 °C 0.2 °F /  -17.7 °C 1022.9 in /  34635.4 hPa Calm   3.2 mph /  5.1 km/h 80 % 0.0 in /  0 mm
22:12 3.2 °F /  -16 °C 0.3 °F /  -17.6 °C 1022.9 in /  34635.4 hPa NNW 1.6 mph /  2.6 km/h 4.8 mph /  7.7 km/h 81 % 0.0 in /  0 mm
22:17 3.1 °F /  -16.1 °C 0.2 °F /  -17.7 °C 1022.9 in /  34635.4 hPa NNW 1.6 mph /  2.6 km/h 4.8 mph /  7.7 km/h 81 % 0.0 in /  0 mm
22:22 2.9 °F /  -16.2 °C 0.0 °F /  -17.8 °C 1022.9 in /  34635.4 hPa NW 1.6 mph /  2.6 km/h 4.8 mph /  7.7 km/h 81 % 0.0 in /  0 mm
22:32 3.1 °F /  -16.1 °C 0.2 °F /  -17.7 °C 1023.2 in /  34645.6 hPa Calm   3.2 mph /  5.1 km/h 81 % 0.0 in /  0 mm
22:37 3.2 °F /  -16 °C 0.3 °F /  -17.6 °C 1023.2 in /  34645.6 hPa NNW 4.8 mph /  7.7 km/h 4.8 mph /  7.7 km/h 81 % 0.0 in /  0 mm
22:42 3.2 °F /  -16 °C 0.1 °F /  -17.7 °C 1023.2 in /  34645.6 hPa NNW 3.2 mph /  5.1 km/h 4.8 mph /  7.7 km/h 80 % 0.0 in /  0 mm
22:47 3.2 °F /  -16 °C 0.1 °F /  -17.7 °C 1023.2 in /  34645.6 hPa NW 3.2 mph /  5.1 km/h 4.8 mph /  7.7 km/h 80 % 0.0 in /  0 mm
22:52 3.2 °F /  -16 °C 0.1 °F /  -17.7 °C 1023.2 in /  34645.6 hPa NNW 1.6 mph /  2.6 km/h 4.8 mph /  7.7 km/h 80 % 0.0 in /  0 mm
22:57 3.1 °F /  -16.1 °C 0.2 °F /  -17.7 °C 1023.2 in /  34645.6 hPa North 1.6 mph /  2.6 km/h 6.4 mph /  10.3 km/h 81 % 0.0 in /  0 mm
23:02 2.9 °F /  -16.2 °C 0.0 °F /  -17.8 °C 1023.2 in /  34645.6 hPa NNW 3.2 mph /  5.1 km/h 6.4 mph /  10.3 km/h 81 % 0.0 in /  0 mm
23:07 2.9 °F /  -16.2 °C 0.1 °F /  -17.7 °C 1023.2 in /  34645.6 hPa NNW 1.6 mph /  2.6 km/h 6.4 mph /  10.3 km/h 82 % 0.0 in /  0 mm
23:12 2.8 °F /  -16.2 °C 0.0 °F /  -17.8 °C 1023.2 in /  34645.6 hPa North 1.6 mph /  2.6 km/h 6.4 mph /  10.3 km/h 82 % 0.0 in /  0 mm
23:17 2.8 °F /  -16.2 °C 0.0 °F /  -17.8 °C 1023.2 in /  34645.6 hPa NNW 3.2 mph /  5.1 km/h 4.8 mph /  7.7 km/h 82 % 0.0 in /  0 mm
23:22 2.8 °F /  -16.2 °C 0.0 °F /  -17.8 °C 1023.2 in /  34645.6 hPa NW 3.2 mph /  5.1 km/h 4.8 mph /  7.7 km/h 82 % 0.0 in /  0 mm
23:32 2.7 °F /  -16.3 °C -0.1 °F /  -17.8 °C 1023.2 in /  34645.6 hPa Calm   6.4 mph /  10.3 km/h 82 % 0.0 in /  0 mm
23:37 2.7 °F /  -16.3 °C -0.1 °F /  -17.8 °C 1023.6 in /  34659.1 hPa NW 4.8 mph /  7.7 km/h 4.8 mph /  7.7 km/h 82 % 0.0 in /  0 mm
23:42 2.7 °F /  -16.3 °C -0.1 °F /  -17.8 °C 1023.2 in /  34645.6 hPa Calm   4.8 mph /  7.7 km/h 82 % 0.0 in /  0 mm
23:52 2.5 °F /  -16.4 °C -0.1 °F /  -17.8 °C 1023.2 in /  34645.6 hPa NW 1.6 mph /  2.6 km/h 4.8 mph /  7.7 km/h 83 % 0.0 in /  0 mm
Meteo18
Compliments of Weather Underground - 4 mb

Script developed by  Jim McMurry - jmcmurry@mwt.net Adapted for the template by  Wim van der Kuil - Leuven-Template.eu

You find our weather info also at:

European Weather Network

Weather Underground

Equipment we use:

Weather-station
Davis Vue

Weather-program
Meteobridge

Weather-server
Raspberry PI 2 B+

Provider
1 and 1

Davis Vue

Meteobridge

Raspberry PI 2 B+

1 and 1